Time;durP1;ratioP1;P1;durP2;ratioP2;P2;SDS_P1;SDS_P2;PMS_P1;PMS_P2;Temp;Humidity;BMP_temperature;BMP_pressure;BME280_temperature;BME280_humidity;BME280_pressure;Samples;Min_cycle;Max_cycle;Signal;HPM_P1;HPM_P2
2022/03/05 00:02:38;;;;;;;13.07;8.70;;;0.50;57.50;;;;;;6222524;28;20249;-61
2022/03/05 00:05:41;;;;;;;12.70;7.97;;;0.40;58.00;;;;;;6209064;28;20198;-60
2022/03/05 00:08:42;;;;;;;18.40;10.10;;;0.40;58.40;;;;;;6225559;28;20338;-60
2022/03/05 00:11:43;;;;;;;26.13;12.53;;;0.40;58.40;;;;;;6213489;28;20202;-60
2022/03/05 00:14:44;;;;;;;18.10;10.63;;;0.30;58.60;;;;;;6222408;28;20681;-59
2022/03/05 00:17:47;;;;;;;16.67;9.57;;;0.30;58.70;;;;;;6233305;28;20213;-59
2022/03/05 00:20:47;;;;;;;15.10;9.70;;;0.30;58.50;;;;;;6232692;28;20243;-59
2022/03/05 00:23:48;;;;;;;16.40;9.73;;;0.30;58.40;;;;;;6249581;28;20265;-59
2022/03/05 00:26:49;;;;;;;15.07;9.10;;;0.30;58.40;;;;;;6211749;28;20202;-59
2022/03/05 00:29:50;;;;;;;13.13;8.47;;;0.30;58.50;;;;;;6214904;28;20206;-59
2022/03/05 00:32:51;;;;;;;13.50;8.07;;;0.40;58.30;;;;;;6217857;28;20205;-59
2022/03/05 00:35:52;;;;;;;10.43;7.07;;;0.30;57.80;;;;;;6209439;28;20218;-59
2022/03/05 00:38:53;;;;;;;12.33;8.13;;;0.30;57.80;;;;;;6214833;28;20197;-58
2022/03/05 00:41:54;;;;;;;10.80;7.73;;;0.40;58.20;;;;;;6233185;28;20183;-59
2022/03/05 00:44:54;;;;;;;14.23;7.80;;;0.30;58.40;;;;;;6228701;28;20213;-56
2022/03/05 00:47:55;;;;;;;11.00;7.13;;;0.40;58.40;;;;;;6232612;28;20191;-58
2022/03/05 00:50:56;;;;;;;12.67;7.53;;;0.30;58.00;;;;;;6248445;28;20225;-59
2022/03/05 00:53:57;;;;;;;12.27;8.00;;;0.30;58.00;;;;;;6233031;28;20203;-59
2022/03/05 00:56:58;;;;;;;11.43;7.53;;;0.40;58.00;;;;;;6232544;28;20268;-59
2022/03/05 00:59:59;;;;;;;11.53;7.73;;;0.30;58.60;;;;;;6232526;28;20191;-59
2022/03/05 01:02:59;;;;;;;10.93;7.00;;;0.30;58.50;;;;;;6231936;28;20213;-60
2022/03/05 01:06:00;;;;;;;9.87;7.03;;;0.30;59.00;;;;;;6222335;28;20200;-59
2022/03/05 01:09:04;;;;;;;11.60;6.73;;;0.30;58.80;;;;;;6224404;28;20194;-59
2022/03/05 01:12:05;;;;;;;10.33;6.27;;;0.30;58.90;;;;;;6242370;28;20237;-59
2022/03/05 01:15:07;;;;;;;11.17;7.50;;;0.30;58.80;;;;;;6257896;28;20217;-55
2022/03/05 01:18:08;;;;;;;12.50;7.60;;;0.30;59.60;;;;;;6233982;28;20222;-56
2022/03/05 01:21:09;;;;;;;12.10;8.00;;;0.30;59.50;;;;;;6207593;28;20236;-58
2022/03/05 01:24:10;;;;;;;10.37;7.03;;;0.30;59.50;;;;;;6217549;28;20194;-59
2022/03/05 01:27:10;;;;;;;9.93;6.90;;;0.30;59.70;;;;;;6232358;28;20182;-59
2022/03/05 01:30:12;;;;;;;9.53;6.80;;;0.40;59.40;;;;;;6231684;28;20199;-59
2022/03/05 01:33:17;;;;;;;11.20;7.10;;;0.40;59.10;;;;;;6248904;28;20191;-60
2022/03/05 01:36:18;;;;;;;11.97;7.77;;;0.30;59.40;;;;;;6248937;28;20222;-59
2022/03/05 01:39:19;;;;;;;11.37;7.33;;;0.30;58.90;;;;;;6239764;28;20249;-58
2022/03/05 01:42:21;;;;;;;11.17;7.90;;;0.40;59.20;;;;;;6224001;28;20188;-58
2022/03/05 01:45:22;;;;;;;11.00;7.87;;;0.30;59.20;;;;;;6223822;28;20195;-59
2022/03/05 01:48:23;;;;;;;11.93;6.63;;;0.30;59.50;;;;;;6240060;28;20197;-57
2022/03/05 01:51:24;;;;;;;13.00;7.93;;;0.30;59.40;;;;;;6248090;28;20205;-55
2022/03/05 01:54:25;;;;;;;10.03;6.43;;;0.30;59.60;;;;;;6247931;28;20190;-55
2022/03/05 01:57:26;;;;;;;13.80;7.33;;;0.30;59.50;;;;;;6234437;28;20218;-58
2022/03/05 02:00:27;;;;;;;10.80;6.93;;;0.30;59.50;;;;;;6231176;28;20207;-59
2022/03/05 02:03:28;;;;;;;11.53;7.07;;;0.20;59.70;;;;;;6231833;28;20186;-58
2022/03/05 02:06:29;;;;;;;9.07;6.30;;;0.30;59.80;;;;;;6221915;28;20195;-58
2022/03/05 02:09:30;;;;;;;11.03;7.23;;;0.20;60.00;;;;;;6207700;28;20236;-58
2022/03/05 02:12:33;;;;;;;13.13;6.93;;;0.20;60.40;;;;;;6224892;28;20195;-58
2022/03/05 02:15:34;;;;;;;12.67;7.00;;;0.20;60.60;;;;;;6246720;28;20217;-57
2022/03/05 02:18:35;;;;;;;11.80;6.40;;;0.20;60.00;;;;;;6235543;28;20186;-58
2022/03/05 02:21:36;;;;;;;9.57;6.20;;;0.20;60.10;;;;;;6252435;28;20236;-58
2022/03/05 02:24:38;;;;;;;10.50;6.57;;;0.20;60.90;;;;;;6236398;28;20183;-58
2022/03/05 02:27:40;;;;;;;10.07;5.87;;;0.30;61.20;;;;;;6227986;28;20274;-58
2022/03/05 02:30:41;;;;;;;9.70;5.70;;;0.30;61.60;;;;;;6227700;28;20210;-60
2022/03/05 02:33:43;;;;;;;9.03;6.10;;;0.30;61.60;;;;;;6211818;28;20198;-60
2022/03/05 02:36:44;;;;;;;9.70;6.23;;;0.30;61.80;;;;;;6211610;28;20217;-59
2022/03/05 02:39:46;;;;;;;9.73;6.23;;;0.40;61.40;;;;;;6223093;28;20197;-60
2022/03/05 02:42:47;;;;;;;9.60;5.67;;;0.40;61.30;;;;;;6251847;28;20532;-59
2022/03/05 02:45:49;;;;;;;10.80;6.57;;;0.40;61.50;;;;;;6231882;28;20251;-61
2022/03/05 02:48:50;;;;;;;10.40;6.50;;;0.40;61.70;;;;;;6223077;28;20197;-61
2022/03/05 02:51:52;;;;;;;9.23;6.13;;;0.40;61.60;;;;;;6212542;28;20198;-60
2022/03/05 02:54:52;;;;;;;11.87;6.33;;;0.40;62.20;;;;;;6227689;28;20229;-59
2022/03/05 02:57:53;;;;;;;8.17;6.10;;;0.40;62.00;;;;;;6221086;28;20194;-58
2022/03/05 03:00:54;;;;;;;10.87;5.70;;;0.50;62.10;;;;;;6247114;28;20183;-58
2022/03/05 03:03:55;;;;;;;10.47;7.00;;;0.50;62.10;;;;;;6255696;28;20194;-58
2022/03/05 03:06:56;;;;;;;8.33;6.10;;;0.50;62.80;;;;;;6248085;28;20199;-57
2022/03/05 03:09:58;;;;;;;11.33;6.50;;;0.50;62.80;;;;;;6267955;28;20198;-60
2022/03/05 03:12:59;;;;;;;9.57;6.07;;;0.50;63.00;;;;;;6238140;28;20230;-60
2022/03/05 03:16:00;;;;;;;10.77;6.43;;;0.30;62.70;;;;;;6226609;28;20287;-60
2022/03/05 03:19:01;;;;;;;9.20;6.00;;;0.40;62.30;;;;;;6268092;28;20202;-59
2022/03/05 03:22:02;;;;;;;9.43;5.90;;;0.50;62.50;;;;;;6234789;28;20195;-60
2022/03/05 03:25:05;;;;;;;9.67;6.10;;;0.50;62.90;;;;;;6225785;28;20218;-60
2022/03/05 03:28:07;;;;;;;8.47;5.73;;;0.40;63.30;;;;;;6210605;28;20222;-59
2022/03/05 03:31:08;;;;;;;9.93;6.50;;;0.50;63.40;;;;;;6210527;28;20195;-61
2022/03/05 03:34:09;;;;;;;10.43;6.80;;;0.50;63.00;;;;;;6229551;28;20235;-61
2022/03/05 03:37:10;;;;;;;12.13;7.20;;;0.50;63.40;;;;;;6233657;28;20323;-61
2022/03/05 03:40:14;;;;;;;11.60;6.67;;;0.50;62.90;;;;;;6234227;28;20182;-61
2022/03/05 03:43:14;;;;;;;12.13;6.60;;;0.40;62.60;;;;;;6233768;28;20220;-61
2022/03/05 03:46:15;;;;;;;9.00;5.73;;;0.60;62.90;;;;;;6217337;28;20198;-61
2022/03/05 03:49:16;;;;;;;10.00;6.77;;;0.50;62.60;;;;;;6209621;28;20215;-61
2022/03/05 03:52:18;;;;;;;10.37;6.53;;;0.40;63.40;;;;;;6209810;28;20226;-61
2022/03/05 03:55:20;;;;;;;9.47;5.60;;;0.30;62.90;;;;;;6235777;28;20211;-61
2022/03/05 03:58:21;;;;;;;12.07;6.50;;;0.40;62.70;;;;;;6242590;28;20195;-61
2022/03/05 04:01:22;;;;;;;10.43;6.00;;;0.50;62.30;;;;;;6250236;28;20189;-61
2022/03/05 04:04:23;;;;;;;9.33;6.10;;;0.50;63.00;;;;;;6233384;28;20192;-61
2022/03/05 04:10:43;;;;;;;11.20;6.27;;;0.50;63.70;;;;;;6214442;28;20201;-60
2022/03/05 04:13:45;;;;;;;9.57;6.53;;;0.40;63.50;;;;;;6249798;28;20182;-60
2022/03/05 04:16:46;;;;;;;10.67;6.10;;;0.40;63.20;;;;;;6248854;28;20226;-59
2022/03/05 04:19:47;;;;;;;9.70;6.47;;;0.40;63.30;;;;;;6249437;28;20245;-59
2022/03/05 04:22:48;;;;;;;11.40;7.20;;;0.30;63.60;;;;;;6249982;28;20186;-60
2022/03/05 04:25:49;;;;;;;9.77;6.63;;;0.40;63.80;;;;;;6232998;28;20216;-60
2022/03/05 04:28:50;;;;;;;8.33;5.67;;;0.30;63.70;;;;;;6233771;28;20182;-59
2022/03/05 04:31:51;;;;;;;8.73;5.43;;;0.40;63.40;;;;;;6227763;28;20210;-60
2022/03/05 04:34:52;;;;;;;7.33;5.70;;;0.40;63.40;;;;;;6225798;28;20229;-59
2022/03/05 04:37:53;;;;;;;9.07;5.90;;;0.40;63.10;;;;;;6208303;28;20289;-60
2022/03/05 04:40:54;;;;;;;9.10;5.70;;;0.50;62.80;;;;;;6228515;28;20186;-60
2022/03/05 04:43:55;;;;;;;10.73;6.00;;;0.40;62.90;;;;;;6231652;28;20189;-60
2022/03/05 04:46:56;;;;;;;9.27;6.20;;;0.40;63.20;;;;;;6229817;28;20201;-60
2022/03/05 04:49:57;;;;;;;10.87;6.37;;;0.40;63.90;;;;;;6232934;28;20213;-60
2022/03/05 04:52:57;;;;;;;10.87;5.47;;;0.40;64.20;;;;;;6233384;28;20194;-59
2022/03/05 04:55:58;;;;;;;6.90;5.90;;;0.30;64.40;;;;;;6231856;28;20222;-58
2022/03/05 04:58:59;;;;;;;10.63;6.00;;;0.30;64.00;;;;;;6232124;28;20190;-59
2022/03/05 05:02:00;;;;;;;8.73;6.07;;;0.30;63.70;;;;;;6232437;28;20183;-59
2022/03/05 05:05:01;;;;;;;11.30;6.27;;;0.30;63.70;;;;;;6251764;28;20250;-59
2022/03/05 05:08:02;;;;;;;13.37;6.93;;;0.20;64.00;;;;;;6247798;28;20194;-59
2022/03/05 05:11:03;;;;;;;11.23;6.60;;;0.20;63.50;;;;;;6247503;28;20205;-60
2022/03/05 05:14:04;;;;;;;9.03;6.33;;;0.20;62.90;;;;;;6208110;28;20542;-60
2022/03/05 05:17:04;;;;;;;12.97;7.47;;;0.20;62.60;;;;;;6212095;28;20271;-59
2022/03/05 05:20:07;;;;;;;11.33;7.00;;;0.30;62.70;;;;;;6232406;28;20231;-58
2022/03/05 05:23:08;;;;;;;9.87;6.23;;;0.30;63.00;;;;;;6245499;28;20200;-59
2022/03/05 05:26:10;;;;;;;17.80;6.17;;;0.30;63.20;;;;;;6231818;28;20201;-59
2022/03/05 05:29:10;;;;;;;10.43;6.57;;;0.20;63.30;;;;;;6266795;28;20341;-60
2022/03/05 05:32:11;;;;;;;20.73;10.73;;;0.20;63.40;;;;;;6253221;28;20199;-59
2022/03/05 05:35:12;;;;;;;17.83;9.33;;;0.20;63.10;;;;;;6235193;28;20310;-54
2022/03/05 05:38:13;;;;;;;15.70;8.90;;;0.10;63.20;;;;;;6257159;28;20226;-53
2022/03/05 05:41:16;;;;;;;12.47;7.40;;;0.10;62.90;;;;;;6242153;28;20199;-54
2022/03/05 05:44:16;;;;;;;10.40;6.13;;;0.10;63.40;;;;;;6220290;28;20187;-55
2022/03/05 05:47:17;;;;;;;9.03;6.07;;;0.10;63.50;;;;;;6234344;28;20204;-56
2022/03/05 05:50:18;;;;;;;21.93;12.93;;;0.10;63.60;;;;;;6255291;28;20343;-58
2022/03/05 05:53:19;;;;;;;29.77;17.20;;;0.10;63.90;;;;;;6226855;28;20194;-56
2022/03/05 05:56:20;;;;;;;32.70;18.10;;;0.20;64.10;;;;;;6240902;28;20308;-54
2022/03/05 05:59:21;;;;;;;25.03;14.63;;;0.20;63.60;;;;;;6254987;28;20276;-59
2022/03/05 06:02:23;;;;;;;23.30;13.03;;;0.30;62.90;;;;;;6259199;28;20201;-57
2022/03/05 06:05:23;;;;;;;28.47;14.13;;;0.30;62.40;;;;;;6270139;28;20189;-58
2022/03/05 06:08:24;;;;;;;22.20;12.97;;;0.40;63.20;;;;;;6199917;28;20199;-57
2022/03/05 06:11:26;;;;;;;21.97;11.27;;;0.40;63.30;;;;;;6228414;28;20202;-59
2022/03/05 06:14:27;;;;;;;18.50;9.57;;;0.40;62.30;;;;;;6220825;28;20199;-57
2022/03/05 06:17:27;;;;;;;21.83;13.10;;;0.50;62.50;;;;;;6235970;28;20308;-59
2022/03/05 06:20:28;;;;;;;30.33;17.20;;;0.50;62.90;;;;;;6243683;28;20277;-58
2022/03/05 06:23:30;;;;;;;27.10;14.53;;;0.70;62.50;;;;;;6244442;28;20175;-58
2022/03/05 06:26:34;;;;;;;17.47;9.47;;;0.70;62.40;;;;;;6261697;28;20282;-59
2022/03/05 06:29:35;;;;;;;12.17;7.23;;;0.80;62.40;;;;;;6276614;28;20190;-58
2022/03/05 06:32:36;;;;;;;9.57;6.60;;;0.80;62.00;;;;;;6208423;28;20198;-59
2022/03/05 06:35:37;;;;;;;9.43;5.73;;;0.90;61.40;;;;;;6250726;28;20218;-60
2022/03/05 06:38:39;;;;;;;7.27;4.90;;;1.00;61.40;;;;;;6225122;28;20267;-60
2022/03/05 06:41:40;;;;;;;8.90;5.57;;;1.10;61.60;;;;;;6219856;28;20189;-59
2022/03/05 06:44:42;;;;;;;6.93;4.90;;;1.10;61.40;;;;;;6228626;28;20294;-58
2022/03/05 06:47:43;;;;;;;7.30;5.20;;;1.30;61.10;;;;;;6257363;28;20559;-60
2022/03/05 06:50:44;;;;;;;6.67;4.80;;;1.30;61.20;;;;;;6240871;28;20197;-59
2022/03/05 06:53:45;;;;;;;8.63;5.00;;;1.50;60.80;;;;;;6273128;28;20189;-59
2022/03/05 06:56:46;;;;;;;7.47;4.97;;;1.60;59.30;;;;;;6267565;28;20252;-59
2022/03/05 06:59:47;;;;;;;7.67;5.53;;;1.70;59.30;;;;;;6254898;28;20208;-58
2022/03/05 07:02:48;;;;;;;7.83;5.20;;;2.10;57.10;;;;;;6267731;28;20190;-59
2022/03/05 07:05:49;;;;;;;12.93;7.77;;;2.20;57.00;;;;;;6241519;28;20228;-59
2022/03/05 07:08:49;;;;;;;11.33;7.37;;;1.80;57.30;;;;;;6232435;28;20207;-60
2022/03/05 07:11:50;;;;;;;11.87;6.90;;;2.00;57.50;;;;;;6235243;28;20337;-59
2022/03/05 07:14:51;;;;;;;10.63;6.77;;;2.00;57.60;;;;;;6229144;28;20186;-56
2022/03/05 07:17:53;;;;;;;11.60;7.60;;;2.20;57.10;;;;;;6239994;28;20197;-56
2022/03/05 07:20:54;;;;;;;7.93;5.13;;;2.20;57.00;;;;;;6251003;28;20241;-59
2022/03/05 07:23:56;;;;;;;13.90;6.60;;;2.30;56.50;;;;;;6251609;28;20196;-58
2022/03/05 07:26:56;;;;;;;7.63;5.80;;;2.40;55.40;;;;;;6241080;28;20200;-57
2022/03/05 07:29:57;;;;;;;9.10;5.93;;;2.40;55.50;;;;;;6239881;28;20656;-57
2022/03/05 07:32:58;;;;;;;9.60;5.73;;;2.50;55.70;;;;;;6238443;28;20194;-58
2022/03/05 07:35:59;;;;;;;8.70;6.10;;;2.60;54.60;;;;;;6241658;28;20299;-58
2022/03/05 07:39:00;;;;;;;10.87;6.53;;;2.80;54.10;;;;;;6219722;28;20249;-56
2022/03/05 07:42:01;;;;;;;11.13;6.47;;;3.10;53.00;;;;;;6235864;28;20282;-56
2022/03/05 07:45:03;;;;;;;10.20;6.67;;;3.30;51.70;;;;;;6224959;28;20190;-58
2022/03/05 07:48:04;;;;;;;9.77;6.80;;;3.40;51.10;;;;;;6249548;28;20228;-59
2022/03/05 07:51:09;;;;;;;10.33;6.27;;;3.40;51.60;;;;;;6248957;28;20212;-58
2022/03/05 07:54:11;;;;;;;10.43;6.20;;;3.30;51.80;;;;;;6240153;28;20262;-60
2022/03/05 07:57:12;;;;;;;10.50;6.20;;;3.40;50.70;;;;;;6241401;28;20229;-57
2022/03/05 08:00:13;;;;;;;11.00;6.40;;;3.60;51.20;;;;;;6242004;28;20194;-59
2022/03/05 08:03:14;;;;;;;8.97;6.30;;;3.50;50.60;;;;;;6229562;28;20265;-59
2022/03/05 08:06:16;;;;;;;8.43;6.37;;;3.80;49.70;;;;;;6222752;28;20192;-60
2022/03/05 08:09:16;;;;;;;10.00;6.67;;;4.10;49.60;;;;;;6226572;28;20305;-60
2022/03/05 08:12:17;;;;;;;10.77;6.37;;;4.30;49.10;;;;;;6245433;28;20202;-60
2022/03/05 08:15:18;;;;;;;6.77;5.10;;;4.40;48.70;;;;;;6230994;28;20225;-59
2022/03/05 08:18:20;;;;;;;9.37;6.10;;;4.30;48.50;;;;;;6242423;28;20199;-59
2022/03/05 08:21:21;;;;;;;9.03;6.50;;;4.60;47.70;;;;;;6228572;28;20237;-60
2022/03/05 08:24:22;;;;;;;6.97;5.03;;;4.80;46.80;;;;;;6235352;28;20236;-59
2022/03/05 08:27:23;;;;;;;8.97;5.80;;;4.80;46.30;;;;;;6232467;28;20189;-59
2022/03/05 08:30:24;;;;;;;6.97;5.27;;;4.90;46.60;;;;;;6242174;28;20202;-60
2022/03/05 08:33:25;;;;;;;5.93;4.67;;;4.90;45.60;;;;;;6248553;28;20231;-60
2022/03/05 08:36:26;;;;;;;8.23;5.30;;;5.20;45.40;;;;;;6231340;28;20287;-60
2022/03/05 08:39:28;;;;;;;8.87;5.27;;;5.40;45.50;;;;;;6230915;28;20250;-60
2022/03/05 08:42:29;;;;;;;7.73;4.70;;;5.40;47.20;;;;;;6228404;28;20191;-60
2022/03/05 08:45:30;;;;;;;7.40;4.70;;;5.40;46.80;;;;;;6222947;28;20199;-60
2022/03/05 08:48:31;;;;;;;6.93;4.97;;;5.60;46.80;;;;;;6231854;28;20194;-59
2022/03/05 08:51:32;;;;;;;8.47;4.97;;;5.60;46.60;;;;;;6230345;28;20207;-59
2022/03/05 08:54:33;;;;;;;8.20;6.00;;;5.80;46.70;;;;;;6232603;28;20201;-60
2022/03/05 08:57:34;;;;;;;6.57;5.20;;;5.70;46.60;;;;;;6231527;28;20229;-60
2022/03/05 09:00:35;;;;;;;7.23;5.40;;;5.80;46.00;;;;;;6238224;28;20190;-59
2022/03/05 09:03:36;;;;;;;7.57;5.47;;;5.80;45.60;;;;;;6248374;28;20204;-60
2022/03/05 09:06:38;;;;;;;9.57;5.90;;;5.90;46.70;;;;;;6230052;28;20191;-60
2022/03/05 09:09:38;;;;;;;8.23;5.10;;;6.10;46.30;;;;;;6248020;28;20212;-60
2022/03/05 09:12:42;;;;;;;10.00;6.53;;;6.10;46.60;;;;;;6232795;28;20186;-61
2022/03/05 09:15:42;;;;;;;6.53;5.40;;;6.10;46.90;;;;;;6237481;28;20219;-60
2022/03/05 09:18:43;;;;;;;6.77;5.40;;;6.60;45.40;;;;;;6220290;28;20285;-60
2022/03/05 09:21:44;;;;;;;6.80;5.13;;;6.80;44.80;;;;;;6247866;28;20245;-61
2022/03/05 09:24:45;;;;;;;9.00;6.80;;;7.00;44.80;;;;;;6241848;28;20199;-60
2022/03/05 09:27:47;;;;;;;8.70;6.50;;;7.00;44.20;;;;;;6235898;28;20198;-60
2022/03/05 09:30:47;;;;;;;8.70;5.80;;;7.00;43.00;;;;;;6243515;28;20199;-60
2022/03/05 09:33:48;;;;;;;9.87;6.20;;;7.30;43.20;;;;;;6231927;28;20244;-58
2022/03/05 09:36:49;;;;;;;7.37;5.60;;;7.30;42.40;;;;;;6217261;28;20234;-59
2022/03/05 09:39:50;;;;;;;8.77;6.00;;;7.10;43.00;;;;;;6207078;28;20195;-57
2022/03/05 09:42:51;;;;;;;8.90;6.77;;;7.10;43.50;;;;;;6229766;28;20248;-59
2022/03/05 09:45:54;;;;;;;8.40;5.77;;;7.10;44.60;;;;;;6254759;28;20287;-60
2022/03/05 09:48:55;;;;;;;9.87;6.83;;;7.40;43.50;;;;;;6245438;28;20202;-60
2022/03/05 09:51:59;;;;;;;10.07;6.47;;;7.60;42.50;;;;;;6232083;28;20252;-60
2022/03/05 09:55:01;;;;;;;10.20;7.37;;;7.50;43.60;;;;;;6222171;28;20298;-60
2022/03/05 09:58:02;;;;;;;10.10;6.97;;;7.80;41.80;;;;;;6232670;28;20191;-60
2022/03/05 10:01:03;;;;;;;10.13;6.60;;;7.60;43.00;;;;;;6242554;28;20194;-60
2022/03/05 10:04:04;;;;;;;7.80;6.23;;;7.40;43.10;;;;;;6229679;28;20202;-60
2022/03/05 10:07:20;;;;;;;10.73;7.33;;;7.20;43.40;;;;;;6221119;28;20202;-60
2022/03/05 10:10:21;;;;;;;8.90;6.77;;;7.10;43.80;;;;;;6240634;28;20203;-61
2022/03/05 10:13:26;;;;;;;7.20;5.57;;;7.20;43.50;;;;;;6212587;28;20226;-62
2022/03/05 10:16:32;;;;;;;10.27;7.67;;;7.00;44.20;;;;;;6232876;28;20219;-61
2022/03/05 10:19:34;;;;;;;9.10;5.67;;;6.80;45.00;;;;;;6247990;28;20249;-61
2022/03/05 10:22:35;;;;;;;11.00;7.67;;;6.60;45.60;;;;;;6231229;28;20195;-60
2022/03/05 10:25:46;;;;;;;9.47;6.20;;;6.30;48.00;;;;;;6229977;28;20190;-61
2022/03/05 10:28:47;;;;;;;9.23;5.83;;;5.80;49.50;;;;;;6244747;28;20190;-60
2022/03/05 10:32:04;;;;;;;7.23;4.90;;;5.60;50.60;;;;;;6262724;28;20260;-62
2022/03/05 10:35:05;;;;;;;6.37;4.87;;;5.60;51.30;;;;;;6247673;28;20202;-62
2022/03/05 10:38:06;;;;;;;7.40;4.93;;;5.40;54.10;;;;;;6224684;28;20194;-61
2022/03/05 10:41:07;;;;;;;8.63;6.27;;;5.20;57.80;;;;;;6230857;28;20249;-62
2022/03/05 10:44:11;;;;;;;9.20;6.17;;;4.90;59.80;;;;;;6227042;28;20179;-62
2022/03/05 10:47:12;;;;;;;8.43;6.30;;;4.70;61.00;;;;;;6226149;28;20199;-63
2022/03/05 10:50:18;;;;;;;10.47;6.20;;;4.60;62.70;;;;;;6246754;28;20241;-63
2022/03/05 10:53:19;;;;;;;8.60;5.93;;;5.00;61.20;;;;;;6250861;28;20248;-62
2022/03/05 10:56:32;;;;;;;9.73;6.00;;;5.00;57.10;;;;;;6235249;28;20217;-62
2022/03/05 10:59:39;;;;;;;6.97;5.47;;;4.70;56.90;;;;;;6233429;28;20194;-61
2022/03/05 11:02:42;;;;;;;5.70;4.97;;;5.20;57.00;;;;;;6250674;28;20267;-61
2022/03/05 11:05:42;;;;;;;7.37;5.33;;;5.30;55.80;;;;;;6244854;28;20199;-62
2022/03/05 11:08:43;;;;;;;7.30;5.50;;;5.80;56.40;;;;;;6234495;28;20202;-61
2022/03/05 11:11:44;;;;;;;8.53;5.27;;;6.20;52.30;;;;;;6235205;28;20190;-61
2022/03/05 11:14:46;;;;;;;6.87;4.73;;;6.00;52.00;;;;;;6220881;28;20215;-62
2022/03/05 11:17:47;;;;;;;6.20;4.60;;;6.30;52.10;;;;;;6246706;28;20313;-60
2022/03/05 11:20:49;;;;;;;7.07;5.10;;;6.50;48.60;;;;;;6250135;28;20291;-62
2022/03/05 11:23:52;;;;;;;7.47;5.73;;;6.70;50.30;;;;;;6233503;28;20290;-61
2022/03/05 11:26:55;;;;;;;6.03;4.70;;;7.10;48.40;;;;;;6251105;28;20309;-62
2022/03/05 11:30:03;;;;;;;7.60;5.73;;;7.30;47.80;;;;;;6237294;28;20725;-61
2022/03/05 11:33:13;;;;;;;6.57;5.03;;;7.10;47.10;;;;;;6250859;28;20285;-64
2022/03/05 11:36:25;;;;;;;7.27;5.27;;;7.00;47.00;;;;;;6244293;28;20265;-63
2022/03/05 11:39:37;;;;;;;8.30;6.17;;;6.90;48.30;;;;;;6243040;28;20193;-64
2022/03/05 11:42:38;;;;;;;7.00;5.33;;;6.80;49.70;;;;;;6235354;28;20211;-63
2022/03/05 11:45:57;;;;;;;8.17;5.50;;;6.60;49.50;;;;;;6232682;28;20256;-63
2022/03/05 11:49:05;;;;;;;8.80;5.60;;;6.30;50.00;;;;;;6241997;28;20294;-63
2022/03/05 11:52:06;;;;;;;6.30;4.20;;;6.20;50.20;;;;;;6212282;28;20199;-60
2022/03/05 11:55:15;;;;;;;5.77;4.37;;;6.20;48.20;;;;;;6228305;28;20194;-61
2022/03/05 11:58:19;;;;;;;6.97;4.67;;;6.10;49.00;;;;;;6224839;28;20219;-60
2022/03/05 12:01:41;;;;;;;7.53;5.77;;;6.00;47.70;;;;;;6241875;28;20270;-61
2022/03/05 12:04:48;;;;;;;8.17;5.70;;;6.10;49.00;;;;;;6240995;28;20195;-62
2022/03/05 12:07:49;;;;;;;8.00;5.73;;;6.30;48.20;;;;;;6227077;28;20302;-61
2022/03/05 12:11:09;;;;;;;8.73;6.17;;;6.20;46.60;;;;;;6218857;28;20233;-61
2022/03/05 12:14:10;;;;;;;7.03;5.33;;;6.10;45.90;;;;;;6245036;28;20241;-61
2022/03/05 12:17:10;;;;;;;9.47;6.27;;;6.30;46.00;;;;;;6220106;28;20217;-61
2022/03/05 12:20:16;;;;;;;7.43;5.90;;;6.50;45.40;;;;;;6215447;28;20254;-60
2022/03/05 12:23:19;;;;;;;8.53;5.93;;;6.70;43.80;;;;;;6251620;28;20191;-61
2022/03/05 12:26:26;;;;;;;8.50;6.00;;;6.60;44.00;;;;;;6227399;28;20203;-62
2022/03/05 12:29:27;;;;;;;8.30;5.90;;;6.70;43.00;;;;;;6235264;28;20202;-61
2022/03/05 12:32:30;;;;;;;8.97;5.07;;;6.80;42.50;;;;;;6236273;28;20255;-62
2022/03/05 12:35:32;;;;;;;7.43;5.47;;;7.20;41.60;;;;;;6225301;28;20306;-61
2022/03/05 12:38:33;;;;;;;7.13;5.30;;;7.30;41.30;;;;;;6239904;28;20214;-61
2022/03/05 12:41:34;;;;;;;6.77;5.20;;;7.20;41.00;;;;;;6238411;28;20195;-62
2022/03/05 12:44:36;;;;;;;7.03;4.90;;;6.90;40.30;;;;;;6216554;28;20210;-61
2022/03/05 12:47:36;;;;;;;7.00;5.87;;;7.30;40.70;;;;;;6238871;28;20225;-61
2022/03/05 12:50:39;;;;;;;7.67;6.20;;;7.60;40.20;;;;;;6225079;28;20226;-61
2022/03/05 12:53:42;;;;;;;8.00;5.53;;;7.30;38.80;;;;;;6239059;28;20321;-62
2022/03/05 12:56:42;;;;;;;8.90;6.67;;;7.70;39.10;;;;;;6239786;28;20234;-61
2022/03/05 12:59:45;;;;;;;9.43;6.50;;;7.80;38.60;;;;;;6215801;28;20247;-62
2022/03/05 13:02:48;;;;;;;6.77;5.60;;;7.70;39.60;;;;;;6248573;28;20230;-62
2022/03/05 13:05:54;;;;;;;9.87;6.27;;;7.70;39.50;;;;;;6233134;28;20257;-59
2022/03/05 13:08:55;;;;;;;9.87;6.30;;;7.80;39.10;;;;;;6265234;28;20197;-60
2022/03/05 13:11:55;;;;;;;8.00;5.73;;;7.60;38.40;;;;;;6242065;28;20193;-59
2022/03/05 13:14:56;;;;;;;9.37;6.30;;;7.40;39.00;;;;;;6234812;28;20194;-59
2022/03/05 13:18:08;;;;;;;8.87;6.90;;;7.30;39.60;;;;;;6231746;28;20296;-60
2022/03/05 13:21:10;;;;;;;9.57;6.07;;;7.30;40.20;;;;;;6205076;28;20271;-61
2022/03/05 13:24:13;;;;;;;8.13;5.80;;;7.40;39.80;;;;;;6224200;28;20237;-57
2022/03/05 13:27:14;;;;;;;11.20;7.57;;;7.40;39.80;;;;;;6241523;28;20225;-57
2022/03/05 13:30:19;;;;;;;9.70;7.63;;;7.10;40.40;;;;;;6221190;28;20688;-61
2022/03/05 13:33:56;;;;;;;10.30;7.17;;;7.40;41.40;;;;;;6241818;28;20201;-61
2022/03/05 13:37:07;;;;;;;10.10;7.20;;;7.30;41.60;;;;;;6205073;28;20215;-60
2022/03/05 13:40:10;;;;;;;10.80;7.90;;;7.30;41.70;;;;;;6239395;28;20219;-60
2022/03/05 13:43:11;;;;;;;10.13;6.87;;;7.20;42.20;;;;;;6237049;28;20194;-60
2022/03/05 13:46:12;;;;;;;8.77;6.77;;;7.20;42.70;;;;;;6255308;28;20222;-60
2022/03/05 13:49:17;;;;;;;10.97;6.20;;;7.10;43.00;;;;;;6233219;28;20194;-60
2022/03/05 13:52:19;;;;;;;9.33;6.60;;;7.20;42.40;;;;;;6233747;28;20203;-60
2022/03/05 13:55:20;;;;;;;11.80;8.30;;;7.20;43.10;;;;;;6235162;28;20220;-60
2022/03/05 13:58:22;;;;;;;10.20;7.97;;;7.20;42.70;;;;;;6241256;28;20210;-61
2022/03/05 14:01:45;;;;;;;10.83;8.33;;;7.30;42.80;;;;;;6240391;28;20194;-60
2022/03/05 14:05:00;;;;;;;10.40;6.90;;;7.10;42.70;;;;;;6260685;28;20250;-60
2022/03/05 14:08:03;;;;;;;8.57;6.37;;;7.00;43.40;;;;;;6242972;28;20199;-60
2022/03/05 14:11:04;;;;;;;10.87;8.33;;;6.90;42.80;;;;;;6229398;28;20200;-60
2022/03/05 14:14:05;;;;;;;11.30;8.77;;;6.80;43.30;;;;;;6214482;28;20274;-61
2022/03/05 14:17:07;;;;;;;12.40;9.00;;;6.80;44.50;;;;;;6242395;28;20222;-61
2022/03/05 14:20:16;;;;;;;12.10;8.67;;;6.70;44.90;;;;;;6245741;28;20243;-61
2022/03/05 14:23:22;;;;;;;11.27;8.80;;;6.60;44.60;;;;;;6243929;28;20218;-61
2022/03/05 14:26:34;;;;;;;11.57;8.23;;;6.40;45.80;;;;;;6225932;28;20191;-60
2022/03/05 14:29:35;;;;;;;12.20;8.43;;;6.10;47.50;;;;;;6246036;28;20192;-60
2022/03/05 14:32:36;;;;;;;9.40;7.83;;;5.70;48.70;;;;;;6248456;28;20202;-60
2022/03/05 14:35:37;;;;;;;13.13;10.27;;;5.80;49.00;;;;;;6248241;28;20223;-60
2022/03/05 14:38:38;;;;;;;12.53;8.63;;;5.70;49.40;;;;;;6227623;28;20245;-62
2022/03/05 14:41:39;;;;;;;13.37;8.63;;;5.70;49.70;;;;;;6237621;28;20202;-59
2022/03/05 14:44:40;;;;;;;12.50;9.30;;;5.70;49.70;;;;;;6268414;28;20199;-59
2022/03/05 14:47:42;;;;;;;11.30;7.20;;;5.60;49.20;;;;;;6252355;28;20500;-60
2022/03/05 14:50:43;;;;;;;14.53;9.23;;;5.60;49.90;;;;;;6230111;28;20210;-60
2022/03/05 14:53:49;;;;;;;11.93;8.07;;;5.70;49.30;;;;;;6220855;28;20213;-59
2022/03/05 14:56:50;;;;;;;11.07;8.53;;;5.60;49.60;;;;;;6236895;28;20233;-58
2022/03/05 14:59:51;;;;;;;11.03;7.57;;;5.60;48.90;;;;;;6256966;28;20203;-55
2022/03/05 15:02:52;;;;;;;11.20;8.67;;;5.60;48.60;;;;;;6246574;28;20232;-60
2022/03/05 15:05:53;;;;;;;13.50;8.27;;;5.60;49.10;;;;;;6246552;28;20199;-59
2022/03/05 15:08:54;;;;;;;10.60;7.20;;;5.60;48.90;;;;;;6229232;28;20198;-60
2022/03/05 15:11:54;;;;;;;10.97;7.77;;;5.50;49.00;;;;;;6268053;28;20202;-60
2022/03/05 15:14:55;;;;;;;10.37;8.23;;;5.30;49.30;;;;;;6229868;28;20190;-59
2022/03/05 15:17:56;;;;;;;10.93;7.57;;;5.20;49.80;;;;;;6237242;28;20222;-59
2022/03/05 15:20:57;;;;;;;14.33;9.10;;;5.30;50.00;;;;;;6230811;28;20691;-60
2022/03/05 15:23:58;;;;;;;10.83;7.77;;;5.30;49.90;;;;;;6220533;28;20216;-59
2022/03/05 15:26:59;;;;;;;11.40;8.40;;;5.30;49.60;;;;;;6247841;28;20202;-59
2022/03/05 15:30:00;;;;;;;12.67;8.97;;;5.30;49.10;;;;;;6251358;28;20205;-60
2022/03/05 15:33:04;;;;;;;10.03;7.23;;;5.30;48.40;;;;;;6266912;28;20630;-59
2022/03/05 15:36:05;;;;;;;11.30;7.30;;;5.20;48.40;;;;;;6234298;28;20304;-58
2022/03/05 15:39:06;;;;;;;11.17;7.83;;;5.10;48.70;;;;;;6250452;28;20194;-60
2022/03/05 15:42:07;;;;;;;9.27;6.87;;;5.10;49.10;;;;;;6229003;28;20256;-60
2022/03/05 15:45:09;;;;;;;14.27;9.17;;;5.00;49.20;;;;;;6237107;28;20198;-59
2022/03/05 15:48:10;;;;;;;11.77;7.80;;;5.00;49.40;;;;;;6232733;28;20198;-59
2022/03/05 15:51:13;;;;;;;11.77;7.90;;;5.00;49.30;;;;;;6232534;28;20190;-59
2022/03/05 15:54:14;;;;;;;11.50;8.17;;;4.90;49.40;;;;;;6230070;28;20309;-59
2022/03/05 15:57:15;;;;;;;10.10;7.03;;;4.90;48.30;;;;;;6230439;28;20215;-60